Time;durP1;ratioP1;P1;durP2;ratioP2;P2;SDS_P1;SDS_P2;PMS_P1;PMS_P2;Temp;Humidity;BMP_temperature;BMP_pressure;BME280_temperature;BME280_humidity;BME280_pressure;Samples;Min_cycle;Max_cycle;Signal;HPM_P1;HPM_P2
2022/03/04 00:01:29;;;;;;;24.47;13.80;;;6.40;41.50;;;;;;5063893;28;20501;-85
2022/03/04 00:03:57;;;;;;;25.37;12.67;;;6.40;41.50;;;;;;5080855;28;20481;-84
2022/03/04 00:06:24;;;;;;;22.60;13.17;;;6.40;41.80;;;;;;5036443;28;20448;-82
2022/03/04 00:08:51;;;;;;;25.33;13.33;;;6.40;41.60;;;;;;5064689;28;20589;-85
2022/03/04 00:11:18;;;;;;;26.40;13.63;;;6.30;41.60;;;;;;5084142;28;20467;-84
2022/03/04 00:13:46;;;;;;;18.00;12.00;;;6.30;41.70;;;;;;5062170;28;20455;-86
2022/03/04 00:16:13;;;;;;;29.13;11.80;;;6.30;41.70;;;;;;5046543;28;20464;-84
2022/03/04 00:18:41;;;;;;;24.80;14.10;;;6.30;41.60;;;;;;5063732;28;21379;-84
2022/03/04 00:21:09;;;;;;;25.00;12.90;;;6.30;41.70;;;;;;5046586;28;20529;-84
2022/03/04 00:23:36;;;;;;;24.03;10.77;;;6.20;41.90;;;;;;5082928;28;20555;-85
2022/03/04 00:26:03;;;;;;;25.33;12.23;;;6.20;42.20;;;;;;5064308;28;20439;-84
2022/03/04 00:28:31;;;;;;;19.23;11.90;;;6.20;42.50;;;;;;5083525;28;20520;-84
2022/03/04 00:30:57;;;;;;;22.00;13.70;;;6.20;42.10;;;;;;5051732;28;20482;-84
2022/03/04 00:33:24;;;;;;;23.60;11.83;;;6.20;42.00;;;;;;5047014;28;20467;-84
2022/03/04 00:35:55;;;;;;;23.23;13.70;;;6.10;42.00;;;;;;5063430;28;20467;-85
2022/03/04 00:38:22;;;;;;;19.93;11.80;;;6.10;41.90;;;;;;5063956;28;20477;-84
2022/03/04 00:40:49;;;;;;;24.07;12.50;;;6.10;42.10;;;;;;5084260;28;20470;-84
2022/03/04 00:43:17;;;;;;;30.97;12.90;;;6.10;42.30;;;;;;5064210;28;20471;-84
2022/03/04 00:45:43;;;;;;;24.80;13.47;;;6.00;42.50;;;;;;5081867;28;20458;-84
2022/03/04 00:48:10;;;;;;;21.83;11.70;;;5.90;42.70;;;;;;5061197;28;21010;-85
2022/03/04 00:50:37;;;;;;;27.43;12.90;;;5.80;43.00;;;;;;5079801;28;20475;-85
2022/03/04 00:53:06;;;;;;;21.40;12.73;;;5.80;43.10;;;;;;5042635;28;20460;-85
2022/03/04 00:55:36;;;;;;;22.07;11.50;;;5.30;43.60;;;;;;5081751;28;20467;-84
2022/03/04 00:58:03;;;;;;;28.90;13.47;;;5.40;43.80;;;;;;5029297;28;20451;-84
2022/03/04 01:00:30;;;;;;;22.83;11.80;;;5.40;43.60;;;;;;5061922;28;20471;-84
2022/03/04 01:02:57;;;;;;;35.20;13.93;;;5.50;43.10;;;;;;5081218;28;20467;-85
2022/03/04 01:05:23;;;;;;;19.97;12.13;;;5.60;42.80;;;;;;5061841;28;20525;-84
2022/03/04 01:07:50;;;;;;;31.30;13.20;;;5.70;42.80;;;;;;5063567;28;20456;-84
2022/03/04 01:10:19;;;;;;;32.80;14.60;;;5.70;42.70;;;;;;5060925;28;20505;-84
2022/03/04 01:12:46;;;;;;;25.20;12.80;;;5.60;42.50;;;;;;5082660;28;20463;-85
2022/03/04 01:15:13;;;;;;;27.70;14.70;;;5.40;42.90;;;;;;5081027;28;20464;-84
2022/03/04 01:17:40;;;;;;;26.70;12.93;;;5.30;42.80;;;;;;5062459;28;20874;-84
2022/03/04 01:20:09;;;;;;;24.73;12.23;;;5.20;42.90;;;;;;5041045;28;20470;-83
2022/03/04 01:22:36;;;;;;;25.37;13.73;;;5.20;43.40;;;;;;5064442;28;20482;-84
2022/03/04 01:25:03;;;;;;;27.97;13.40;;;5.30;43.60;;;;;;5055865;28;20455;-84
2022/03/04 01:27:32;;;;;;;37.03;15.70;;;5.30;43.40;;;;;;5061569;28;20477;-83
2022/03/04 01:29:58;;;;;;;28.73;14.53;;;5.40;43.30;;;;;;5061901;28;21113;-84
2022/03/04 01:32:25;;;;;;;25.47;12.57;;;5.50;43.20;;;;;;5061712;28;20466;-85
2022/03/04 01:34:52;;;;;;;25.37;13.23;;;5.50;42.90;;;;;;5068645;28;20477;-85
2022/03/04 01:37:19;;;;;;;28.50;14.40;;;5.50;42.90;;;;;;5044344;28;20498;-85
2022/03/04 01:39:46;;;;;;;22.10;12.73;;;5.60;43.00;;;;;;5062930;28;20476;-85
2022/03/04 01:42:13;;;;;;;30.10;14.07;;;5.60;42.70;;;;;;5084839;28;20455;-83
2022/03/04 01:44:41;;;;;;;32.33;13.60;;;5.60;42.70;;;;;;5054469;28;20459;-84
2022/03/04 01:47:09;;;;;;;24.93;12.17;;;5.50;42.60;;;;;;5032854;28;20455;-83
2022/03/04 01:49:36;;;;;;;26.17;12.37;;;5.50;42.90;;;;;;5086197;28;20962;-85
2022/03/04 01:52:04;;;;;;;23.60;11.17;;;5.40;43.20;;;;;;5085296;28;21429;-84
2022/03/04 01:54:31;;;;;;;24.93;13.87;;;5.40;43.50;;;;;;5083648;28;20483;-85
2022/03/04 01:56:58;;;;;;;32.97;13.53;;;5.40;43.40;;;;;;5051311;28;21038;-84
2022/03/04 01:59:24;;;;;;;23.07;11.97;;;5.40;43.00;;;;;;5054793;28;20483;-85
2022/03/04 02:01:54;;;;;;;27.73;13.87;;;5.40;43.00;;;;;;5066396;28;20802;-84
2022/03/04 02:04:21;;;;;;;24.53;11.70;;;5.40;42.80;;;;;;5084354;28;20447;-84
2022/03/04 02:06:48;;;;;;;38.23;15.57;;;5.40;42.90;;;;;;5084990;28;20467;-84
2022/03/04 02:09:15;;;;;;;20.77;12.57;;;5.30;43.10;;;;;;5084060;28;20544;-85
2022/03/04 02:11:44;;;;;;;26.13;13.77;;;5.30;43.20;;;;;;5086014;28;21266;-84
2022/03/04 02:14:11;;;;;;;34.73;15.40;;;5.30;43.70;;;;;;5065713;28;20480;-85
2022/03/04 02:16:43;;;;;;;31.70;15.97;;;5.20;43.90;;;;;;5066226;28;20471;-84
2022/03/04 02:19:11;;;;;;;36.60;15.90;;;5.10;43.90;;;;;;5065797;28;20459;-81
2022/03/04 02:21:44;;;;;;;32.90;15.77;;;5.20;43.60;;;;;;5082445;28;20460;-84
2022/03/04 02:24:12;;;;;;;23.40;12.57;;;5.20;43.40;;;;;;5066072;28;20460;-84
2022/03/04 02:26:39;;;;;;;39.97;17.23;;;5.20;43.50;;;;;;5051387;28;20475;-84
2022/03/04 02:29:06;;;;;;;38.13;15.17;;;5.10;43.60;;;;;;5084146;28;20480;-83
2022/03/04 02:31:33;;;;;;;38.20;17.40;;;5.10;43.60;;;;;;5064350;28;20459;-83
2022/03/04 02:33:59;;;;;;;38.50;17.97;;;5.10;43.40;;;;;;5084250;28;20511;-84
2022/03/04 02:36:26;;;;;;;32.20;15.57;;;5.00;44.10;;;;;;5084654;28;20479;-85
2022/03/04 02:38:53;;;;;;;36.30;15.63;;;4.90;44.20;;;;;;5084823;28;20883;-84
2022/03/04 02:41:22;;;;;;;31.50;14.40;;;4.90;44.00;;;;;;5048823;28;20479;-83
2022/03/04 02:43:49;;;;;;;25.63;14.17;;;4.90;44.10;;;;;;5085233;28;21084;-85
2022/03/04 02:46:16;;;;;;;33.00;14.00;;;4.90;44.00;;;;;;5083301;28;20463;-83
2022/03/04 02:48:43;;;;;;;21.53;11.37;;;4.90;44.20;;;;;;5083132;28;21539;-82
2022/03/04 02:51:09;;;;;;;28.50;13.30;;;4.90;44.60;;;;;;5080854;28;20482;-84
2022/03/04 02:53:36;;;;;;;24.90;12.90;;;4.70;44.90;;;;;;5084884;28;20483;-83
2022/03/04 02:56:04;;;;;;;30.87;12.83;;;4.80;44.80;;;;;;5065527;28;20517;-85
2022/03/04 02:58:32;;;;;;;24.40;13.10;;;4.90;44.30;;;;;;5065374;28;20484;-85
2022/03/04 03:00:59;;;;;;;23.07;11.83;;;4.90;43.90;;;;;;5038182;28;20980;-84
2022/03/04 03:03:27;;;;;;;25.73;13.10;;;4.90;43.70;;;;;;5067313;28;20451;-84
2022/03/04 03:05:54;;;;;;;26.27;12.60;;;4.90;44.10;;;;;;5086333;28;20467;-84
2022/03/04 03:08:21;;;;;;;32.03;12.27;;;4.80;44.20;;;;;;5084899;28;20455;-84
2022/03/04 03:10:48;;;;;;;29.23;13.00;;;4.80;44.20;;;;;;5086323;28;20482;-87
2022/03/04 03:13:15;;;;;;;22.70;14.37;;;4.90;44.20;;;;;;5086820;28;20513;-85
2022/03/04 03:15:43;;;;;;;26.97;13.20;;;4.90;43.60;;;;;;5055518;28;21174;-84
2022/03/04 03:18:10;;;;;;;28.00;13.30;;;4.90;43.50;;;;;;5039575;28;20467;-84
2022/03/04 03:20:37;;;;;;;27.43;12.30;;;4.90;43.50;;;;;;5068704;28;20482;-84
2022/03/04 03:23:03;;;;;;;24.10;11.87;;;4.90;43.30;;;;;;5088268;28;20513;-83
2022/03/04 03:25:30;;;;;;;26.07;12.47;;;4.90;43.30;;;;;;5065782;28;20447;-85
2022/03/04 03:27:58;;;;;;;25.47;13.07;;;4.80;44.40;;;;;;5049880;28;20444;-84
2022/03/04 03:30:26;;;;;;;23.90;13.83;;;4.70;44.90;;;;;;5068443;28;20590;-84
2022/03/04 03:32:54;;;;;;;25.80;13.07;;;4.70;44.50;;;;;;5067883;28;20487;-85
2022/03/04 03:35:21;;;;;;;24.27;13.17;;;4.70;44.30;;;;;;5083585;28;20459;-84
2022/03/04 03:37:48;;;;;;;22.27;11.50;;;4.60;44.50;;;;;;5056705;28;20974;-84
2022/03/04 03:40:15;;;;;;;28.63;14.40;;;4.60;44.60;;;;;;5063821;28;20912;-85
2022/03/04 03:42:43;;;;;;;24.13;11.90;;;4.60;44.60;;;;;;5064731;28;20512;-85
2022/03/04 03:45:11;;;;;;;21.03;11.97;;;4.60;44.30;;;;;;5065915;28;20452;-84
2022/03/04 03:47:39;;;;;;;22.67;12.67;;;4.70;44.30;;;;;;5088983;28;20542;-85
2022/03/04 03:50:10;;;;;;;23.20;12.70;;;4.70;44.30;;;;;;5066593;28;20463;-85
2022/03/04 03:52:37;;;;;;;20.00;10.83;;;4.70;44.30;;;;;;5082503;28;20540;-85
2022/03/04 03:55:04;;;;;;;26.30;12.17;;;4.70;44.50;;;;;;5083680;28;20455;-84
2022/03/04 03:57:31;;;;;;;19.47;12.33;;;4.70;44.50;;;;;;5056403;28;20475;-84
2022/03/04 03:59:58;;;;;;;31.97;12.93;;;4.70;44.60;;;;;;5067242;28;20475;-83
2022/03/04 04:02:26;;;;;;;23.00;10.77;;;4.60;44.50;;;;;;5085067;28;20467;-85
2022/03/04 04:04:53;;;;;;;22.97;14.40;;;4.70;44.60;;;;;;5066975;28;20454;-84
2022/03/04 04:07:21;;;;;;;20.33;11.23;;;4.60;44.40;;;;;;5081748;28;20487;-84
2022/03/04 04:09:48;;;;;;;26.70;11.37;;;4.60;44.60;;;;;;5085186;28;20913;-85
2022/03/04 04:12:15;;;;;;;23.30;11.67;;;4.50;44.60;;;;;;5066694;28;20463;-85
2022/03/04 04:14:42;;;;;;;20.27;11.33;;;4.30;45.30;;;;;;5081231;28;21014;-85
2022/03/04 04:17:09;;;;;;;27.57;14.10;;;4.20;45.70;;;;;;5052131;28;20466;-85
2022/03/04 04:19:36;;;;;;;23.37;13.20;;;4.10;45.70;;;;;;5051084;28;20472;-85
2022/03/04 04:22:03;;;;;;;32.03;15.30;;;4.10;45.80;;;;;;5049185;28;20456;-85
2022/03/04 04:24:32;;;;;;;18.50;10.80;;;4.10;46.00;;;;;;5064522;28;20951;-86
2022/03/04 04:26:59;;;;;;;31.00;11.60;;;4.20;45.80;;;;;;5065033;28;20440;-86
2022/03/04 04:29:26;;;;;;;28.37;11.43;;;4.20;45.60;;;;;;5084214;28;20471;-85
2022/03/04 04:31:53;;;;;;;21.60;11.67;;;4.20;45.60;;;;;;5085132;28;20523;-86
2022/03/04 04:34:19;;;;;;;33.10;14.37;;;4.10;46.00;;;;;;5033485;28;21041;-85
2022/03/04 04:36:46;;;;;;;34.57;17.90;;;3.90;46.40;;;;;;5064868;28;21043;-86
2022/03/04 04:39:13;;;;;;;38.03;19.40;;;3.80;46.30;;;;;;5085006;28;20501;-85
2022/03/04 04:41:44;;;;;;;33.03;18.53;;;3.70;47.40;;;;;;5085209;28;20460;-85
2022/03/04 04:44:11;;;;;;;36.83;16.50;;;3.60;47.90;;;;;;5067515;28;21163;-85
2022/03/04 04:46:38;;;;;;;32.37;16.40;;;3.70;47.90;;;;;;5084665;28;20476;-86
2022/03/04 04:49:05;;;;;;;37.50;16.87;;;3.80;47.30;;;;;;5049713;28;21064;-83
2022/03/04 04:51:32;;;;;;;38.40;18.43;;;3.90;46.70;;;;;;5049275;28;20455;-85
2022/03/04 04:53:59;;;;;;;52.67;21.57;;;3.90;46.00;;;;;;5058721;28;20471;-85
2022/03/04 04:56:26;;;;;;;56.93;22.93;;;4.00;46.00;;;;;;5083224;28;20456;-85
2022/03/04 04:58:54;;;;;;;58.90;26.80;;;4.00;45.80;;;;;;5083279;28;20451;-85
2022/03/04 05:01:21;;;;;;;77.80;29.43;;;4.00;45.50;;;;;;5066379;28;20492;-86
2022/03/04 05:03:48;;;;;;;69.43;29.90;;;4.10;45.90;;;;;;5047941;28;20958;-86
2022/03/04 05:06:15;;;;;;;54.00;25.10;;;4.10;45.60;;;;;;5047392;28;20452;-85
2022/03/04 05:08:42;;;;;;;61.63;23.67;;;4.10;45.40;;;;;;5037526;28;20474;-85
2022/03/04 05:11:09;;;;;;;48.70;22.27;;;4.10;45.20;;;;;;5084291;28;20476;-86
2022/03/04 05:13:36;;;;;;;39.57;18.30;;;4.10;45.40;;;;;;5065084;28;20448;-85
2022/03/04 05:16:04;;;;;;;40.53;17.10;;;4.10;45.20;;;;;;5044250;28;20481;-86
2022/03/04 05:18:32;;;;;;;34.23;15.60;;;4.00;45.40;;;;;;5061107;28;20471;-86
2022/03/04 05:20:59;;;;;;;31.23;14.67;;;3.90;45.90;;;;;;5089020;28;20556;-86
2022/03/04 05:26:16;;;;;;;37.97;18.60;;;3.90;45.10;;;;;;5029832;28;20573;-85
2022/03/04 05:28:43;;;;;;;25.03;14.80;;;3.80;46.30;;;;;;5086437;28;20451;-85
2022/03/04 05:31:11;;;;;;;32.83;16.27;;;3.70;46.60;;;;;;5071786;28;20497;-86
2022/03/04 05:33:38;;;;;;;36.33;14.67;;;3.80;46.00;;;;;;5085110;28;20824;-83
2022/03/04 05:36:05;;;;;;;39.87;17.13;;;3.80;45.60;;;;;;5088181;28;20439;-86
2022/03/04 05:38:32;;;;;;;28.40;14.33;;;3.80;45.50;;;;;;5053337;28;20490;-87
2022/03/04 05:40:59;;;;;;;26.33;14.07;;;3.70;46.40;;;;;;5069626;28;20472;-87
2022/03/04 05:43:26;;;;;;;31.07;14.83;;;3.80;46.00;;;;;;5070521;28;20463;-88
2022/03/04 05:45:53;;;;;;;37.97;16.07;;;3.70;45.80;;;;;;5065950;28;20452;-90
2022/03/04 05:48:21;;;;;;;31.33;15.27;;;3.70;46.40;;;;;;5067566;28;20455;-88
2022/03/04 05:50:48;;;;;;;35.70;15.90;;;3.70;46.20;;;;;;5065381;28;20471;-88
2022/03/04 05:53:15;;;;;;;24.97;14.50;;;3.80;45.90;;;;;;5066429;28;20463;-88
2022/03/04 05:55:42;;;;;;;26.73;13.10;;;3.80;45.50;;;;;;5068011;28;20444;-89
2022/03/04 05:58:10;;;;;;;25.70;15.10;;;3.80;45.30;;;;;;5092105;28;20819;-88
2022/03/04 06:00:37;;;;;;;30.67;17.57;;;3.80;45.50;;;;;;5071579;28;20826;-88
2022/03/04 06:03:04;;;;;;;33.93;15.70;;;3.80;45.70;;;;;;5036858;28;21102;-87
2022/03/04 06:05:32;;;;;;;27.10;14.33;;;3.80;45.80;;;;;;5084975;28;20455;-87
2022/03/04 06:07:59;;;;;;;28.30;15.47;;;3.80;45.60;;;;;;5068278;28;20447;-87
2022/03/04 06:10:26;;;;;;;26.13;15.23;;;3.80;45.40;;;;;;5086497;28;20479;-87
2022/03/04 06:12:53;;;;;;;37.03;16.53;;;3.80;45.50;;;;;;5066923;28;20454;-87
2022/03/04 06:15:20;;;;;;;33.07;15.90;;;3.80;45.40;;;;;;5088253;28;21199;-88
2022/03/04 06:17:48;;;;;;;35.60;16.97;;;3.80;45.20;;;;;;5066162;28;20502;-88
2022/03/04 06:20:15;;;;;;;32.27;16.20;;;3.80;45.30;;;;;;5048449;28;20475;-89
2022/03/04 06:22:44;;;;;;;31.73;14.80;;;3.80;46.00;;;;;;5066985;28;20462;-86
2022/03/04 06:25:12;;;;;;;30.87;14.50;;;3.80;45.50;;;;;;5085945;28;20508;-88
2022/03/04 06:27:50;;;;;;;30.13;14.47;;;3.70;45.50;;;;;;5052301;28;20452;-89
2022/03/04 06:30:17;;;;;;;27.80;16.03;;;3.70;46.10;;;;;;5065388;28;20475;-88
2022/03/04 06:32:44;;;;;;;38.60;16.10;;;3.70;46.30;;;;;;5036710;28;20431;-88
2022/03/04 06:35:11;;;;;;;25.57;12.40;;;3.70;46.30;;;;;;5087040;28;20456;-86
2022/03/04 06:37:38;;;;;;;26.17;13.47;;;3.70;46.00;;;;;;5061202;28;20493;-88
2022/03/04 06:40:08;;;;;;;27.33;15.93;;;3.70;45.90;;;;;;5068332;28;20998;-90
2022/03/04 06:42:35;;;;;;;29.90;13.90;;;3.80;45.80;;;;;;5053505;28;20481;-89
2022/03/04 06:45:02;;;;;;;29.13;15.70;;;3.70;45.90;;;;;;5049304;28;20831;-88
2022/03/04 06:47:29;;;;;;;31.77;13.03;;;3.70;46.10;;;;;;5053595;28;20900;-88
2022/03/04 06:49:56;;;;;;;28.83;16.20;;;3.70;46.20;;;;;;5069707;28;20474;-88
2022/03/04 06:52:23;;;;;;;29.40;15.03;;;3.70;46.30;;;;;;5085775;28;20451;-88
2022/03/04 06:54:50;;;;;;;25.57;13.57;;;3.70;46.50;;;;;;5046255;28;20464;-88
2022/03/04 06:57:18;;;;;;;28.80;14.47;;;3.70;46.50;;;;;;5085294;28;20981;-88
2022/03/04 06:59:45;;;;;;;31.83;16.50;;;3.80;46.50;;;;;;5039028;28;20464;-89
2022/03/04 07:02:13;;;;;;;44.30;15.83;;;3.80;46.50;;;;;;5014695;28;20447;-89
2022/03/04 07:04:40;;;;;;;34.83;15.53;;;3.80;46.50;;;;;;5067927;28;20497;-90
2022/03/04 07:07:07;;;;;;;29.93;15.50;;;3.80;46.40;;;;;;5069607;28;22891;-89
2022/03/04 07:09:34;;;;;;;40.50;15.17;;;3.60;46.80;;;;;;5037717;28;20503;-89
2022/03/04 07:12:01;;;;;;;34.97;16.37;;;3.60;47.50;;;;;;5050569;28;20483;-88
2022/03/04 07:14:29;;;;;;;33.40;16.37;;;3.60;47.70;;;;;;5086412;28;20458;-89
2022/03/04 07:16:56;;;;;;;32.13;16.60;;;3.60;47.80;;;;;;5036384;28;20463;-89
2022/03/04 07:19:23;;;;;;;39.63;17.77;;;3.70;47.90;;;;;;5067044;28;20488;-91
2022/03/04 07:21:50;;;;;;;27.07;14.97;;;3.80;48.00;;;;;;5038950;28;20455;-89
2022/03/04 07:24:17;;;;;;;37.10;16.40;;;3.80;47.90;;;;;;5069196;28;20447;-89
2022/03/04 07:26:44;;;;;;;28.97;16.17;;;3.90;47.80;;;;;;5052869;28;20449;-89
2022/03/04 07:29:11;;;;;;;26.63;14.77;;;3.90;47.70;;;;;;5083360;28;20448;-93
2022/03/04 07:31:40;;;;;;;38.30;16.97;;;4.00;47.60;;;;;;5072976;28;20477;-91
2022/03/04 07:34:07;;;;;;;29.70;14.73;;;4.00;47.70;;;;;;5082246;28;20511;-92
2022/03/04 07:36:34;;;;;;;31.07;15.60;;;4.10;47.80;;;;;;5074180;28;20456;-89
2022/03/04 07:39:01;;;;;;;29.47;15.10;;;4.10;47.70;;;;;;5053094;28;21082;-88
2022/03/04 07:41:28;;;;;;;31.37;15.33;;;4.10;47.80;;;;;;5055635;28;21008;-92
2022/03/04 07:43:55;;;;;;;30.93;17.00;;;4.10;47.90;;;;;;5073811;28;20444;-89
2022/03/04 07:46:23;;;;;;;40.50;18.13;;;4.20;48.10;;;;;;5027093;28;20559;-89
2022/03/04 07:48:51;;;;;;;34.10;16.17;;;4.20;48.10;;;;;;5053337;28;20494;-88
2022/03/04 07:51:18;;;;;;;30.77;15.47;;;4.20;48.70;;;;;;5032341;28;20534;-89
2022/03/04 07:53:45;;;;;;;29.87;16.23;;;4.30;48.00;;;;;;5024995;28;21171;-89
2022/03/04 07:56:12;;;;;;;40.67;17.43;;;4.30;48.00;;;;;;5031415;28;21454;-89
2022/03/04 07:58:39;;;;;;;41.50;19.23;;;4.30;48.30;;;;;;5036463;28;20469;-88
2022/03/04 08:01:07;;;;;;;37.80;19.17;;;4.30;48.50;;;;;;5029239;28;20472;-89
2022/03/04 08:03:34;;;;;;;33.87;16.13;;;4.30;48.50;;;;;;5050129;28;20560;-88
2022/03/04 08:06:02;;;;;;;37.70;17.87;;;4.30;48.70;;;;;;5067130;28;20551;-89
2022/03/04 08:08:29;;;;;;;44.77;20.67;;;4.20;48.40;;;;;;5053398;28;20457;-88
2022/03/04 08:10:56;;;;;;;36.83;17.90;;;4.20;48.70;;;;;;5064866;28;20476;-88
2022/03/04 08:13:23;;;;;;;41.43;19.90;;;4.20;49.20;;;;;;5046992;28;20491;-88
2022/03/04 08:15:50;;;;;;;46.53;18.60;;;4.30;49.10;;;;;;5049658;28;20823;-87
2022/03/04 08:18:17;;;;;;;60.93;20.87;;;4.30;49.00;;;;;;5033992;28;20466;-88
2022/03/04 08:20:44;;;;;;;47.00;19.60;;;4.40;49.40;;;;;;5048686;28;20901;-89
2022/03/04 08:23:12;;;;;;;48.00;22.10;;;4.40;49.40;;;;;;5028111;28;21039;-89
2022/03/04 08:25:40;;;;;;;55.00;22.60;;;4.50;49.50;;;;;;5047078;28;20457;-88
2022/03/04 08:28:07;;;;;;;40.70;18.37;;;4.60;49.50;;;;;;5023449;28;20465;-87
2022/03/04 08:30:35;;;;;;;45.43;20.67;;;4.70;49.70;;;;;;5030372;28;20487;-87
2022/03/04 08:33:01;;;;;;;43.90;19.60;;;4.80;49.60;;;;;;5047384;28;20459;-87
2022/03/04 08:35:28;;;;;;;47.40;21.33;;;4.80;49.50;;;;;;5030755;28;20465;-88
2022/03/04 08:37:55;;;;;;;41.03;20.57;;;4.90;49.50;;;;;;5021321;28;20818;-88
2022/03/04 08:40:24;;;;;;;46.03;20.67;;;4.90;49.50;;;;;;5047605;28;20472;-88
2022/03/04 08:42:51;;;;;;;44.50;20.63;;;4.90;49.40;;;;;;5047325;28;21157;-87
2022/03/04 08:45:18;;;;;;;43.43;19.73;;;4.90;49.70;;;;;;5047326;28;20453;-88
2022/03/04 08:47:46;;;;;;;47.70;20.70;;;4.90;50.20;;;;;;5030004;28;20445;-88
2022/03/04 08:50:14;;;;;;;40.57;21.17;;;4.90;50.40;;;;;;5064433;28;20568;-88
2022/03/04 08:52:41;;;;;;;42.13;18.87;;;4.90;50.20;;;;;;5029395;28;20506;-86
2022/03/04 08:55:14;;;;;;;44.63;22.83;;;5.00;50.40;;;;;;5048659;28;21170;-89
2022/03/04 08:57:43;;;;;;;59.07;20.80;;;5.00;50.80;;;;;;5067366;28;20487;-87
2022/03/04 09:00:11;;;;;;;47.43;22.57;;;5.00;51.10;;;;;;5034930;28;20471;-88
2022/03/04 09:02:38;;;;;;;47.67;20.83;;;5.00;51.60;;;;;;5048373;28;20963;-89
2022/03/04 09:05:06;;;;;;;46.47;20.23;;;4.90;51.40;;;;;;5045276;28;20514;-88
2022/03/04 09:07:33;;;;;;;43.40;19.13;;;4.90;51.50;;;;;;5054407;28;20844;-88
2022/03/04 09:10:01;;;;;;;43.70;21.57;;;5.00;51.60;;;;;;5049232;28;20482;-88
2022/03/04 09:12:28;;;;;;;52.40;22.20;;;5.00;51.50;;;;;;5064169;28;20979;-87
2022/03/04 09:14:56;;;;;;;55.20;21.10;;;5.20;51.10;;;;;;5044993;28;20487;-88
2022/03/04 09:17:24;;;;;;;56.03;22.23;;;5.40;50.70;;;;;;5027383;28;20468;-88
2022/03/04 09:19:50;;;;;;;48.60;20.03;;;5.40;50.00;;;;;;5048473;28;20463;-87
2022/03/04 09:22:17;;;;;;;41.93;19.20;;;5.30;50.80;;;;;;5051375;28;20471;-87
2022/03/04 09:24:44;;;;;;;38.53;18.70;;;5.40;50.60;;;;;;5043524;28;20487;-87
2022/03/04 09:27:11;;;;;;;45.50;22.83;;;5.60;50.50;;;;;;5044486;28;20449;-88
2022/03/04 09:29:38;;;;;;;47.70;21.10;;;5.80;50.00;;;;;;5064431;28;21004;-87
2022/03/04 09:32:07;;;;;;;49.73;20.77;;;6.00;49.70;;;;;;5027957;28;20471;-87
2022/03/04 09:34:35;;;;;;;49.27;20.23;;;6.20;49.50;;;;;;5060712;28;20463;-87
2022/03/04 09:37:02;;;;;;;46.20;20.70;;;6.20;49.20;;;;;;5045665;28;20468;-85
2022/03/04 09:39:29;;;;;;;47.70;21.03;;;6.30;48.60;;;;;;5037017;28;20850;-88
2022/03/04 09:41:56;;;;;;;51.90;22.60;;;6.50;48.60;;;;;;5031540;28;20473;-88
2022/03/04 09:44:23;;;;;;;50.33;22.60;;;6.50;48.40;;;;;;5033221;28;20783;-88
2022/03/04 09:46:50;;;;;;;48.73;23.20;;;6.60;48.10;;;;;;5049317;28;20496;-88
2022/03/04 09:49:19;;;;;;;52.13;23.23;;;6.80;48.50;;;;;;5036670;28;20456;-89
2022/03/04 09:51:46;;;;;;;45.50;25.47;;;6.70;47.70;;;;;;5038200;28;20460;-88
2022/03/04 09:54:13;;;;;;;51.37;21.67;;;6.80;48.20;;;;;;5064630;28;20471;-89
2022/03/04 09:56:40;;;;;;;134.57;50.37;;;7.10;47.50;;;;;;5033311;28;20509;-87
2022/03/04 09:59:07;;;;;;;48.20;22.70;;;7.00;47.00;;;;;;5036345;28;20475;-88
2022/03/04 10:01:34;;;;;;;41.60;21.43;;;7.20;46.90;;;;;;5024862;28;20460;-87
2022/03/04 10:04:01;;;;;;;48.83;21.67;;;7.50;46.40;;;;;;5058571;28;20544;-86
2022/03/04 10:06:29;;;;;;;54.80;24.13;;;7.50;46.20;;;;;;5041151;28;21213;-87
2022/03/04 10:08:56;;;;;;;41.37;20.47;;;7.70;46.00;;;;;;5045748;28;20525;-85
2022/03/04 10:11:25;;;;;;;43.77;21.83;;;7.80;45.70;;;;;;5023729;28;20486;-86
2022/03/04 10:13:54;;;;;;;43.37;20.97;;;7.90;45.60;;;;;;5031761;28;20460;-88
2022/03/04 10:16:27;;;;;;;42.20;21.27;;;8.20;45.80;;;;;;5043573;28;20959;-88
2022/03/04 10:19:11;;;;;;;39.73;19.60;;;8.20;44.50;;;;;;5061228;28;20511;-89
2022/03/04 10:21:51;;;;;;;42.80;19.00;;;8.20;44.50;;;;;;5035076;28;20576;-89
2022/03/04 10:24:20;;;;;;;37.97;20.50;;;8.10;44.20;;;;;;5047127;28;20955;-88
2022/03/04 10:26:47;;;;;;;43.00;20.43;;;8.20;44.30;;;;;;5036819;28;20459;-88
2022/03/04 10:29:19;;;;;;;39.37;20.30;;;8.30;44.40;;;;;;5023490;28;20489;-87
2022/03/04 10:32:09;;;;;;;39.77;20.60;;;8.60;44.20;;;;;;5031808;28;20449;-88
2022/03/04 10:34:45;;;;;;;35.10;16.37;;;8.90;43.60;;;;;;5058521;28;21555;-89
2022/03/04 10:37:15;;;;;;;37.60;17.43;;;9.10;42.90;;;;;;5036492;28;20467;-88
2022/03/04 10:40:07;;;;;;;34.73;17.40;;;9.40;42.20;;;;;;5008558;28;20462;-89
2022/03/04 10:42:49;;;;;;;38.47;17.00;;;9.40;41.30;;;;;;5045854;28;20472;-88
2022/03/04 10:45:19;;;;;;;37.50;17.57;;;9.40;41.20;;;;;;5016340;28;20448;-89
2022/03/04 10:47:50;;;;;;;37.00;17.77;;;9.40;41.70;;;;;;5034892;28;20464;-88
2022/03/04 10:50:20;;;;;;;45.30;22.53;;;9.60;41.40;;;;;;5044634;28;20467;-89
2022/03/04 10:53:00;;;;;;;37.10;19.20;;;9.60;41.30;;;;;;5062627;28;20455;-90
2022/03/04 10:55:36;;;;;;;30.87;15.63;;;9.80;41.00;;;;;;5044518;28;20467;-89
2022/03/04 10:58:05;;;;;;;39.93;16.80;;;9.60;40.60;;;;;;5032755;28;20826;-88
2022/03/04 11:00:35;;;;;;;36.50;17.43;;;9.70;40.90;;;;;;5015614;28;21275;-89
2022/03/04 11:03:02;;;;;;;34.67;18.00;;;9.60;40.60;;;;;;5030222;28;20475;-88
2022/03/04 11:05:29;;;;;;;37.30;17.67;;;9.70;40.50;;;;;;5042261;28;20452;-89
2022/03/04 11:07:59;;;;;;;35.20;17.20;;;9.80;40.60;;;;;;5048224;28;20457;-89
2022/03/04 11:10:26;;;;;;;34.00;15.70;;;9.90;39.80;;;;;;5026533;28;20983;-89
2022/03/04 11:12:54;;;;;;;35.03;18.67;;;10.20;38.50;;;;;;5048336;28;20445;-91
2022/03/04 11:15:23;;;;;;;47.20;23.23;;;10.30;38.20;;;;;;5021375;28;20443;-89
2022/03/04 11:17:51;;;;;;;34.23;18.93;;;10.70;38.30;;;;;;5030592;28;21050;-90
2022/03/04 11:20:20;;;;;;;32.00;15.30;;;11.00;37.20;;;;;;5025419;28;21030;-90
2022/03/04 11:22:51;;;;;;;30.83;16.30;;;11.10;37.00;;;;;;5025411;28;21141;-88
2022/03/04 11:25:22;;;;;;;32.13;16.47;;;11.40;37.30;;;;;;5048243;28;20487;-87
2022/03/04 11:27:51;;;;;;;31.63;16.77;;;11.70;37.30;;;;;;5052495;28;20461;-88
2022/03/04 11:30:33;;;;;;;25.53;13.80;;;11.70;35.70;;;;;;5008578;28;20568;-87
2022/03/04 11:33:06;;;;;;;29.40;15.20;;;11.50;34.80;;;;;;5031002;28;20456;-88
2022/03/04 11:35:59;;;;;;;30.07;14.10;;;11.40;35.80;;;;;;5033127;28;20478;-85
2022/03/04 11:39:06;;;;;;;28.70;14.10;;;11.20;35.50;;;;;;5028683;28;20437;-87
2022/03/04 11:41:38;;;;;;;28.13;15.43;;;11.70;34.80;;;;;;5065076;28;20562;-86
2022/03/04 11:44:17;;;;;;;28.87;16.60;;;11.60;35.60;;;;;;5034005;28;20475;-87
2022/03/04 11:46:48;;;;;;;30.30;14.97;;;11.70;35.00;;;;;;5043703;28;20575;-87
2022/03/04 11:49:27;;;;;;;27.50;14.33;;;11.60;35.30;;;;;;5044721;28;20938;-88
2022/03/04 11:52:29;;;;;;;22.50;11.90;;;11.80;34.60;;;;;;5015663;28;20464;-88
2022/03/04 11:55:26;;;;;;;26.77;12.37;;;11.90;34.00;;;;;;5038565;28;20452;-88
2022/03/04 11:58:03;;;;;;;26.13;13.27;;;12.00;33.30;;;;;;5026717;28;20483;-89
2022/03/04 12:00:38;;;;;;;21.80;11.57;;;12.00;33.50;;;;;;5044453;28;20488;-88
2022/03/04 12:03:26;;;;;;;21.23;12.43;;;12.00;33.60;;;;;;5029942;28;20457;-88
2022/03/04 12:06:04;;;;;;;22.87;11.00;;;12.20;33.20;;;;;;5060804;28;20445;-87
2022/03/04 12:08:40;;;;;;;19.13;10.27;;;12.20;32.60;;;;;;5041599;28;21039;-86
2022/03/04 12:11:07;;;;;;;27.57;12.67;;;12.10;31.80;;;;;;5055465;28;20616;-87
2022/03/04 12:13:41;;;;;;;31.63;14.17;;;12.30;32.50;;;;;;5039542;28;20544;-87
2022/03/04 12:16:09;;;;;;;22.47;11.20;;;12.80;31.80;;;;;;5041030;28;20459;-88
2022/03/04 12:18:39;;;;;;;19.23;9.73;;;13.00;30.50;;;;;;5024652;28;20455;-87
2022/03/04 12:21:23;;;;;;;16.57;7.50;;;13.20;30.20;;;;;;5048616;28;21138;-88
2022/03/04 12:23:53;;;;;;;16.30;9.13;;;12.90;29.20;;;;;;5055896;28;20466;-87
2022/03/04 12:26:24;;;;;;;19.90;10.97;;;13.10;29.70;;;;;;5012172;28;20986;-88
2022/03/04 12:29:00;;;;;;;28.53;12.50;;;13.20;29.90;;;;;;5023197;28;20510;-88
2022/03/04 12:31:32;;;;;;;19.33;10.00;;;13.00;30.70;;;;;;5066880;28;20476;-88
2022/03/04 12:33:59;;;;;;;22.80;11.50;;;12.60;30.60;;;;;;5016453;28;20460;-88
2022/03/04 12:36:29;;;;;;;36.90;16.70;;;12.50;30.60;;;;;;5023986;28;20456;-88
2022/03/04 12:38:57;;;;;;;16.60;9.97;;;13.10;31.10;;;;;;5039002;28;20960;-89
2022/03/04 12:41:27;;;;;;;20.67;10.20;;;13.00;34.40;;;;;;5035637;28;20476;-89
2022/03/04 12:43:57;;;;;;;18.20;9.80;;;13.20;35.10;;;;;;5028165;28;20469;-90
2022/03/04 12:46:25;;;;;;;21.67;10.83;;;13.50;33.70;;;;;;5025732;28;20453;-89